Naples, Florida
Current Conditions -  °F | °C
As of 10:53 PM on Wednesday 26 Nov 2014 (Local Time) from KAPF Reporting Station
Clear Clear  
Wind Chill: 53°   Ceiling: Unl
Heat Index: 53°   Visibility: 10mi
Dew Point: 51°   Wind: 3mph
Humidity: 93%   Direction: 330°NNW
Pressure: 30.22"   Gusts: NA
Location:  26.14°N, 81.79°W
Report Text: KAPF 270353Z AUTO 33003KT 10SM CLR 12/11 A3022 RMK AO2 SLP232 T01170106
Loading
Personal Weather Stations






























Interactive Weather Map New forecast layout! Learn more

10-Day Weather Forecast

Advertisements
Track Severe Weather on mobile